Time;durP1;ratioP1;P1;durP2;ratioP2;P2;SDS_P1;SDS_P2;PMS_P1;PMS_P2;Temp;Humidity;BMP_temperature;BMP_pressure;BME280_temperature;BME280_humidity;BME280_pressure;Samples;Min_cycle;Max_cycle;Signal;HPM_P1;HPM_P2
2022/07/21 00:01:37;;;;;;;24.42;13.55;;;;;;;;;;7312016;19;162739;-15
2022/07/21 00:04:08;;;;;;;22.83;13.30;;;;;;;;;;7311266;19;154408;-16
2022/07/21 00:06:42;;;;;;;25.05;12.80;;;;;;;;;;7312130;19;154264;-15
2022/07/21 00:09:15;;;;;;;20.35;13.23;;;;;;;;;;7310155;19;162389;-16
2022/07/21 00:11:46;;;;;;;25.83;14.32;;;;;;;;;;7308158;19;162802;-16
2022/07/21 00:14:17;;;;;;;22.40;13.43;;;;;;;;;;7312018;19;154489;-16
2022/07/21 00:16:49;;;;;;;19.52;12.32;;;;;;;;;;7311827;19;154295;-16
2022/07/21 00:19:22;;;;;;;21.98;12.95;;;;;;;;;;7310134;19;162301;-16
2022/07/21 00:21:59;;;;;;;19.73;12.00;;;;;;;;;;7310848;19;163454;-16
2022/07/21 00:24:31;;;;;;;19.02;11.60;;;;;;;;;;7311379;19;154518;-15
2022/07/21 00:27:03;;;;;;;20.67;12.45;;;;;;;;;;7309103;19;154456;-15
2022/07/21 00:29:34;;;;;;;17.13;11.93;;;;;;;;;;7308915;19;164859;-15
2022/07/21 00:32:05;;;;;;;18.33;12.15;;;;;;;;;;7308800;19;162333;-15
2022/07/21 00:34:36;;;;;;;16.73;11.60;;;;;;;;;;7310961;19;154681;-15
2022/07/21 00:37:13;;;;;;;19.35;12.43;;;;;;;;;;7311111;19;154413;-16
2022/07/21 00:39:46;;;;;;;20.33;12.02;;;;;;;;;;7308402;19;162404;-16
2022/07/21 00:42:24;;;;;;;18.95;11.70;;;;;;;;;;7308121;19;163170;-16
2022/07/21 00:44:56;;;;;;;17.42;11.05;;;;;;;;;;7311114;19;154515;-16
2022/07/21 00:47:28;;;;;;;19.92;12.23;;;;;;;;;;7311489;19;154085;-15
2022/07/21 00:50:05;;;;;;;17.23;11.77;;;;;;;;;;7310381;19;163217;-15
2022/07/21 00:52:41;;;;;;;16.08;11.63;;;;;;;;;;7308085;19;162857;-16
2022/07/21 00:55:15;;;;;;;16.95;11.00;;;;;;;;;;7309018;19;154554;-16
2022/07/21 00:57:47;;;;;;;17.10;11.27;;;;;;;;;;7310331;19;153936;-15
2022/07/21 01:00:19;;;;;;;;;;;;;;;;;;7311583;19;162110;-15
2022/07/21 01:02:50;;;;;;;16.65;11.75;;;;;;;;;;7310237;19;162505;-16
2022/07/21 01:05:22;;;;;;;18.65;11.30;;;;;;;;;;7309133;19;154593;-15
2022/07/21 01:07:58;;;;;;;17.23;11.25;;;;;;;;;;7310220;19;153914;-15
2022/07/21 01:10:29;;;;;;;14.75;10.15;;;;;;;;;;7309290;19;162597;-15
2022/07/21 01:13:01;;;;;;;16.52;11.20;;;;;;;;;;7307415;19;163192;-16
2022/07/21 01:15:33;;;;;;;15.18;10.80;;;;;;;;;;7310175;19;154767;-15
2022/07/21 01:18:04;;;;;;;18.80;11.25;;;;;;;;;;7316503;19;154347;-15
2022/07/21 01:20:37;;;;;;;16.58;11.30;;;;;;;;;;7316901;19;162586;-15
2022/07/21 01:23:11;;;;;;;18.65;11.60;;;;;;;;;;7316068;19;163714;-16
2022/07/21 01:25:42;;;;;;;18.63;10.93;;;;;;;;;;7316954;19;154753;-15
2022/07/21 01:28:13;;;;;;;15.73;10.50;;;;;;;;;;7315807;19;155073;-15
2022/07/21 01:30:45;;;;;;;16.63;10.95;;;;;;;;;;7315830;19;162593;-15
2022/07/21 01:33:19;;;;;;;16.65;10.80;;;;;;;;;;7313274;19;162737;-15
2022/07/21 01:35:50;;;;;;;16.92;10.82;;;;;;;;;;7314970;19;154568;-15
2022/07/21 01:43:51;;;;;;;8.63;5.57;;;;;;;;;;7315590;19;163218;-16
2022/07/21 01:46:22;;;;;;;11.40;5.93;;;;;;;;;;7315621;19;154471;-16
2022/07/21 01:48:54;;;;;;;13.70;4.90;;;;;;;;;;7316048;19;155908;-16
2022/07/21 01:51:28;;;;;;;8.23;4.90;;;;;;;;;;7315382;19;162514;-16
2022/07/21 01:54:02;;;;;;;9.15;5.65;;;;;;;;;;7315563;19;163452;-16
2022/07/21 01:56:33;;;;;;;10.40;6.05;;;;;;;;;;7315872;19;154514;-17
2022/07/21 01:59:08;;;;;;;12.00;5.50;;;;;;;;;;7315986;19;154168;-16
2022/07/21 02:01:39;;;;;;;12.20;6.47;;;;;;;;;;7315295;19;162312;-16
2022/07/21 02:04:10;;;;;;;11.98;5.57;;;;;;;;;;7315346;19;162867;-16
2022/07/21 02:06:41;;;;;;;9.30;5.85;;;;;;;;;;7315427;19;154809;-16
2022/07/21 02:09:15;;;;;;;9.02;6.22;;;;;;;;;;7315441;19;153976;-16
2022/07/21 02:11:47;;;;;;;9.30;5.47;;;;;;;;;;7314894;19;162274;-17
2022/07/21 02:14:18;;;;;;;9.60;5.18;;;;;;;;;;7314958;19;162837;-16
2022/07/21 02:16:49;;;;;;;8.95;6.28;;;;;;;;;;7313842;19;154489;-16
2022/07/21 02:19:20;;;;;;;7.38;5.35;;;;;;;;;;7315261;19;154302;-16
2022/07/21 02:21:51;;;;;;;10.60;5.75;;;;;;;;;;7313148;19;162702;-16
2022/07/21 02:24:25;;;;;;;10.60;5.57;;;;;;;;;;7314721;19;163236;-16
2022/07/21 02:26:56;;;;;;;12.18;5.75;;;;;;;;;;7314432;19;154588;-16
2022/07/21 02:29:27;;;;;;;8.27;4.75;;;;;;;;;;7313076;19;154702;-17
2022/07/21 02:31:58;;;;;;;7.93;5.28;;;;;;;;;;7312851;19;162405;-16
2022/07/21 02:34:30;;;;;;;8.52;5.47;;;;;;;;;;7314708;19;162944;-16
2022/07/21 02:37:01;;;;;;;10.70;6.13;;;;;;;;;;7314763;19;154474;-16
2022/07/21 02:39:35;;;;;;;8.35;5.72;;;;;;;;;;7315095;19;153959;-16
2022/07/21 02:42:06;;;;;;;6.68;4.97;;;;;;;;;;7314501;19;162907;-17
2022/07/21 02:44:37;;;;;;;7.38;5.20;;;;;;;;;;7314247;19;163209;-17
2022/07/21 02:47:09;;;;;;;8.75;5.53;;;;;;;;;;7314881;19;154932;-16
2022/07/21 02:49:40;;;;;;;9.65;6.13;;;;;;;;;;7314257;19;153962;-16
2022/07/21 02:52:11;;;;;;;7.85;5.03;;;;;;;;;;7313698;19;163078;-15
2022/07/21 02:54:45;;;;;;;6.00;4.55;;;;;;;;;;7313791;19;163312;-16
2022/07/21 02:57:16;;;;;;;9.40;5.40;;;;;;;;;;7314500;19;154777;-16
2022/07/21 02:59:47;;;;;;;8.43;5.68;;;;;;;;;;7314077;19;153929;-16
2022/07/21 03:02:18;;;;;;;8.38;5.82;;;;;;;;;;7313491;19;162819;-15
2022/07/21 03:04:50;;;;;;;9.73;5.60;;;;;;;;;;7314180;19;162921;-16
2022/07/21 03:07:21;;;;;;;7.45;4.82;;;;;;;;;;7314110;19;154467;-16
2022/07/21 03:09:55;;;;;;;6.50;5.30;;;;;;;;;;7314011;19;154366;-17
2022/07/21 03:12:26;;;;;;;6.97;5.10;;;;;;;;;;7313182;19;162271;-16
2022/07/21 03:14:58;;;;;;;10.05;5.40;;;;;;;;;;7313403;19;163456;-16
2022/07/21 03:17:29;;;;;;;9.05;5.20;;;;;;;;;;7313705;19;154382;-16
2022/07/21 03:20:00;;;;;;;6.78;5.05;;;;;;;;;;7313605;19;154397;-15
2022/07/21 03:22:34;;;;;;;8.85;5.50;;;;;;;;;;7313331;19;162845;-16
2022/07/21 03:25:12;;;;;;;5.90;5.07;;;;;;;;;;7313113;19;163250;-16
2022/07/21 03:27:46;;;;;;;5.65;4.63;;;;;;;;;;7313605;19;154551;-16
2022/07/21 03:30:18;;;;;;;6.90;5.00;;;;;;;;;;7313362;19;154072;-16
2022/07/21 03:32:49;;;;;;;;;;;;;;;;;;7313275;19;162319;-16
2022/07/21 03:35:21;;;;;;;9.18;5.40;;;;;;;;;;7312928;19;163413;-16
2022/07/21 03:37:54;;;;;;;8.10;5.07;;;;;;;;;;7313045;19;154433;-16
2022/07/21 03:40:32;;;;;;;7.47;5.07;;;;;;;;;;7311545;19;154024;-17
2022/07/21 03:43:05;;;;;;;7.15;5.03;;;;;;;;;;7312328;19;162315;-18
2022/07/21 03:45:40;;;;;;;5.78;4.60;;;;;;;;;;7312375;19;162800;-16
2022/07/21 03:48:12;;;;;;;8.85;5.20;;;;;;;;;;7312639;19;154450;-16
2022/07/21 03:50:45;;;;;;;9.43;5.25;;;;;;;;;;7312958;19;154126;-16
2022/07/21 03:53:16;;;;;;;7.55;4.70;;;;;;;;;;7311956;19;162256;-16
2022/07/21 03:55:49;;;;;;;6.80;5.32;;;;;;;;;;7312148;19;163233;-16
2022/07/21 03:58:21;;;;;;;6.78;5.22;;;;;;;;;;7312387;19;154718;-16
2022/07/21 04:00:52;;;;;;;6.25;4.57;;;;;;;;;;7312479;19;154630;-17
2022/07/21 04:03:23;;;;;;;8.68;5.18;;;;;;;;;;7312018;19;162182;-16
2022/07/21 04:05:55;;;;;;;11.88;5.22;;;;;;;;;;7311851;19;162923;-16
2022/07/21 04:08:26;;;;;;;9.15;6.10;;;;;;;;;;7311783;19;154478;-16
2022/07/21 04:11:00;;;;;;;5.57;4.35;;;;;;;;;;7311632;19;154158;-16
2022/07/21 04:13:32;;;;;;;8.55;4.40;;;;;;;;;;7310803;19;162308;-16
2022/07/21 04:16:03;;;;;;;5.22;4.55;;;;;;;;;;7311490;19;162819;-16
2022/07/21 04:18:34;;;;;;;5.28;4.40;;;;;;;;;;7311763;19;155179;-17
2022/07/21 04:21:06;;;;;;;5.85;5.22;;;;;;;;;;7310505;19;154077;-16
2022/07/21 04:23:38;;;;;;;8.27;5.30;;;;;;;;;;7311970;19;162698;-16
2022/07/21 04:26:13;;;;;;;5.72;4.50;;;;;;;;;;7312348;19;162791;-16
2022/07/21 04:28:47;;;;;;;6.30;5.05;;;;;;;;;;7310965;19;154438;-16
2022/07/21 04:31:21;;;;;;;7.75;4.40;;;;;;;;;;7312250;19;153976;-17
2022/07/21 04:33:53;;;;;;;5.70;4.40;;;;;;;;;;7310388;19;162182;-17
2022/07/21 04:36:24;;;;;;;7.40;4.70;;;;;;;;;;7309514;19;163312;-16
2022/07/21 04:38:56;;;;;;;5.25;4.07;;;;;;;;;;7311439;19;154634;-17
2022/07/21 04:41:34;;;;;;;5.68;5.07;;;;;;;;;;7309577;19;154015;-16
2022/07/21 04:44:08;;;;;;;7.72;5.15;;;;;;;;;;7310905;19;163402;-17
2022/07/21 04:46:39;;;;;;;6.07;4.57;;;;;;;;;;7309221;19;163284;-16
2022/07/21 04:49:11;;;;;;;6.40;4.45;;;;;;;;;;7311375;19;154400;-17
2022/07/21 04:51:43;;;;;;;6.00;4.37;;;;;;;;;;7314717;19;154367;-17
2022/07/21 04:54:15;;;;;;;6.00;3.63;;;;;;;;;;7316800;19;162802;-16
2022/07/21 04:56:49;;;;;;;5.28;4.22;;;;;;;;;;7317134;19;162729;-17
2022/07/21 04:59:21;;;;;;;5.90;4.40;;;;;;;;;;7317566;19;155130;-17
2022/07/21 05:01:52;;;;;;;6.20;4.47;;;;;;;;;;7317377;19;154038;-16
2022/07/21 05:04:23;;;;;;;5.32;4.25;;;;;;;;;;7317114;19;162661;-17
2022/07/21 05:06:57;;;;;;;6.43;4.60;;;;;;;;;;7316859;19;162913;-17
2022/07/21 05:09:28;;;;;;;5.32;4.18;;;;;;;;;;7317126;19;154540;-16
2022/07/21 05:12:06;;;;;;;7.05;4.47;;;;;;;;;;7317037;19;153929;-16
2022/07/21 05:14:37;;;;;;;6.22;4.32;;;;;;;;;;7315751;19;162267;-16
2022/07/21 05:17:09;;;;;;;7.23;4.67;;;;;;;;;;7314854;19;162789;-24
2022/07/21 05:19:42;;;;;;;5.27;4.00;;;;;;;;;;7316930;19;154531;-16
2022/07/21 05:22:14;;;;;;;6.43;4.35;;;;;;;;;;7317061;19;153969;-16
2022/07/21 05:24:46;;;;;;;4.30;3.87;;;;;;;;;;7316602;19;162951;-16
2022/07/21 05:27:20;;;;;;;4.90;4.13;;;;;;;;;;7314987;19;162870;-16
2022/07/21 05:29:51;;;;;;;4.85;4.13;;;;;;;;;;7313636;19;154528;-16
2022/07/21 05:32:22;;;;;;;4.97;4.30;;;;;;;;;;7315016;19;154008;-17
2022/07/21 05:34:53;;;;;;;7.57;3.97;;;;;;;;;;7314973;19;162761;-16
2022/07/21 05:37:28;;;;;;;6.72;4.00;;;;;;;;;;7315086;19;162788;-16
2022/07/21 05:40:00;;;;;;;18.73;5.53;;;;;;;;;;7314725;19;154513;-16
2022/07/21 05:42:34;;;;;;;22.10;5.70;;;;;;;;;;7314796;19;153946;-17
2022/07/21 05:45:07;;;;;;;23.48;6.65;;;;;;;;;;7316846;19;162833;-16
2022/07/21 05:47:41;;;;;;;33.10;7.75;;;;;;;;;;7312799;19;162940;-16
2022/07/21 05:50:15;;;;;;;24.20;7.03;;;;;;;;;;7315990;19;154798;-16
2022/07/21 05:52:46;;;;;;;20.77;6.05;;;;;;;;;;7315241;19;154043;-16
2022/07/21 05:55:17;;;;;;;22.58;5.85;;;;;;;;;;7313963;19;162631;-17
2022/07/21 05:57:51;;;;;;;21.17;5.45;;;;;;;;;;7315237;19;163301;-16
2022/07/21 06:00:23;;;;;;;17.45;4.85;;;;;;;;;;7313718;19;154540;-16
2022/07/21 06:02:57;;;;;;;14.73;4.65;;;;;;;;;;7314086;19;154587;-16
2022/07/21 06:05:28;;;;;;;11.13;3.88;;;;;;;;;;7314912;19;162230;-16
2022/07/21 06:08:00;;;;;;;11.00;4.25;;;;;;;;;;7315251;19;163559;-17
2022/07/21 06:10:32;;;;;;;11.30;3.92;;;;;;;;;;7315491;19;154464;-16
2022/07/21 06:13:06;;;;;;;10.63;3.33;;;;;;;;;;7315436;19;154526;-15
2022/07/21 06:15:40;;;;;;;7.13;3.83;;;;;;;;;;7313374;19;162808;-16
2022/07/21 06:18:11;;;;;;;12.52;4.10;;;;;;;;;;7314738;19;163337;-17
2022/07/21 06:20:42;;;;;;;10.40;4.20;;;;;;;;;;7315406;19;154927;-16
2022/07/21 06:23:14;;;;;;;8.52;3.67;;;;;;;;;;7315275;19;153557;-16
2022/07/21 06:25:45;;;;;;;9.00;3.17;;;;;;;;;;7314576;19;162644;-16
2022/07/21 06:28:19;;;;;;;10.75;3.60;;;;;;;;;;7313608;19;163133;-18
2022/07/21 06:30:51;;;;;;;10.63;3.70;;;;;;;;;;7314773;19;154777;-16
2022/07/21 06:33:22;;;;;;;10.60;3.80;;;;;;;;;;7315195;19;153968;-16
2022/07/21 06:35:53;;;;;;;7.55;3.88;;;;;;;;;;7312621;19;163861;-16
2022/07/21 06:38:24;;;;;;;4.97;3.20;;;;;;;;;;7314425;19;162926;-15
2022/07/21 06:40:56;;;;;;;10.60;4.00;;;;;;;;;;7314438;19;154433;-16
2022/07/21 06:43:31;;;;;;;8.18;3.40;;;;;;;;;;7312947;19;153892;-18
2022/07/21 06:46:02;;;;;;;6.70;4.30;;;;;;;;;;7313977;19;162736;-15
2022/07/21 06:48:33;;;;;;;6.88;3.47;;;;;;;;;;7314020;19;162745;-16
2022/07/21 06:51:04;;;;;;;9.75;4.13;;;;;;;;;;7314130;19;155069;-16
2022/07/21 06:53:36;;;;;;;6.00;3.58;;;;;;;;;;7312803;19;154144;-15
2022/07/21 06:56:10;;;;;;;9.20;3.47;;;;;;;;;;7312086;19;162237;-16
2022/07/21 06:58:44;;;;;;;9.40;3.05;;;;;;;;;;7313430;19;163802;-16
2022/07/21 07:01:20;;;;;;;8.77;3.90;;;;;;;;;;7313806;19;154531;-15
2022/07/21 07:03:51;;;;;;;6.43;3.53;;;;;;;;;;7313612;19;154090;-15
2022/07/21 07:06:23;;;;;;;6.90;3.47;;;;;;;;;;7313427;19;162646;-15
2022/07/21 07:08:54;;;;;;;5.37;3.70;;;;;;;;;;7313295;19;162870;-16
2022/07/21 07:11:25;;;;;;;6.40;3.55;;;;;;;;;;7313831;19;154770;-15
2022/07/21 07:13:59;;;;;;;6.90;3.63;;;;;;;;;;7309859;19;154133;-16
2022/07/21 07:16:35;;;;;;;5.75;3.35;;;;;;;;;;7311257;19;162200;-15
2022/07/21 07:19:06;;;;;;;10.45;3.17;;;;;;;;;;7312989;19;163469;-15
2022/07/21 07:21:37;;;;;;;5.85;3.03;;;;;;;;;;7314001;19;154458;-15
2022/07/21 07:24:08;;;;;;;7.45;3.30;;;;;;;;;;7309568;19;154347;-15
2022/07/21 07:26:40;;;;;;;7.50;3.20;;;;;;;;;;7310635;19;162833;-16
2022/07/21 07:29:14;;;;;;;9.50;3.38;;;;;;;;;;7310815;19;163218;-16
2022/07/21 07:31:45;;;;;;;6.55;3.40;;;;;;;;;;7313118;19;154551;-16
2022/07/21 07:34:16;;;;;;;9.40;3.92;;;;;;;;;;7312942;19;154345;-15
2022/07/21 07:36:50;;;;;;;5.97;3.47;;;;;;;;;;7311096;19;162603;-16
2022/07/21 07:39:21;;;;;;;7.15;3.75;;;;;;;;;;7312342;19;162807;-16
2022/07/21 07:41:55;;;;;;;7.97;3.72;;;;;;;;;;7313002;19;154453;-16
2022/07/21 07:44:28;;;;;;;7.45;4.22;;;;;;;;;;7312721;19;153965;-17
2022/07/21 07:47:01;;;;;;;9.82;3.63;;;;;;;;;;7312475;19;162248;-17
2022/07/21 07:49:33;;;;;;;10.43;4.15;;;;;;;;;;7312639;19;162943;-16
2022/07/21 07:52:05;;;;;;;8.68;3.83;;;;;;;;;;7312621;19;154410;-17
2022/07/21 07:54:36;;;;;;;15.20;4.05;;;;;;;;;;7312620;19;154025;-17
2022/07/21 07:57:10;;;;;;;4.53;3.60;;;;;;;;;;7309995;19;162206;-16
2022/07/21 07:59:44;;;;;;;9.98;3.70;;;;;;;;;;7312140;19;163996;-16
2022/07/21 08:02:15;;;;;;;5.43;3.28;;;;;;;;;;7312291;19;154454;-17
2022/07/21 08:04:46;;;;;;;9.05;4.18;;;;;;;;;;7312177;19;153985;-16
2022/07/21 08:07:20;;;;;;;6.93;4.30;;;;;;;;;;7310211;19;162409;-17
2022/07/21 08:09:52;;;;;;;5.95;3.83;;;;;;;;;;7311559;19;162887;-17
2022/07/21 08:12:30;;;;;;;5.90;4.13;;;;;;;;;;7311151;19;154544;-17
2022/07/21 08:15:06;;;;;;;7.18;4.13;;;;;;;;;;7312066;19;153893;-17
2022/07/21 08:17:37;;;;;;;6.25;4.07;;;;;;;;;;7309536;19;162250;-16
2022/07/21 08:20:12;;;;;;;9.25;4.38;;;;;;;;;;7311177;19;162506;-17
2022/07/21 08:22:43;;;;;;;8.02;4.32;;;;;;;;;;7311115;19;154588;-16
2022/07/21 08:25:18;;;;;;;8.13;4.25;;;;;;;;;;7308367;19;154025;-16
2022/07/21 08:27:53;;;;;;;11.27;4.57;;;;;;;;;;7310042;19;162257;-17
2022/07/21 08:30:30;;;;;;;8.20;4.95;;;;;;;;;;7309886;19;133271;-17
2022/07/21 08:33:06;;;;;;;9.65;5.32;;;;;;;;;;7309957;19;154512;-16
2022/07/21 08:35:37;;;;;;;8.90;5.07;;;;;;;;;;7312569;19;153959;-17
2022/07/21 08:38:14;;;;;;;9.88;5.25;;;;;;;;;;7307459;19;162289;-16
2022/07/21 08:40:48;;;;;;;9.73;4.63;;;;;;;;;;7310923;19;163238;-17
2022/07/21 08:43:22;;;;;;;8.80;5.47;;;;;;;;;;7310497;19;154490;-17
2022/07/21 08:46:01;;;;;;;7.65;5.20;;;;;;;;;;7311126;19;154366;-17
2022/07/21 08:48:33;;;;;;;8.68;4.90;;;;;;;;;;7309421;19;162409;-18
2022/07/21 08:51:06;;;;;;;13.05;5.88;;;;;;;;;;7310433;19;162785;-17
2022/07/21 08:53:37;;;;;;;8.50;5.63;;;;;;;;;;7306058;19;154461;-17
2022/07/21 08:56:09;;;;;;;10.07;6.50;;;;;;;;;;7308866;19;154612;-17
2022/07/21 08:58:40;;;;;;;8.23;5.63;;;;;;;;;;7306422;19;162430;-17
2022/07/21 09:01:14;;;;;;;12.07;6.22;;;;;;;;;;7309924;19;162942;-17
2022/07/21 09:03:48;;;;;;;9.85;5.57;;;;;;;;;;7310395;19;154434;-19
2022/07/21 09:06:20;;;;;;;8.98;5.80;;;;;;;;;;7310355;19;154133;-17
2022/07/21 09:08:58;;;;;;;7.85;6.25;;;;;;;;;;7309771;19;162696;-17
2022/07/21 09:11:33;;;;;;;10.93;7.05;;;;;;;;;;7309883;19;162540;-17
2022/07/21 09:14:10;;;;;;;13.73;7.40;;;;;;;;;;7310252;19;154844;-16
2022/07/21 09:16:46;;;;;;;12.77;7.13;;;;;;;;;;7309699;19;153947;-16
2022/07/21 09:19:23;;;;;;;14.73;7.47;;;;;;;;;;7310081;19;162251;-18
2022/07/21 09:21:57;;;;;;;11.60;7.47;;;;;;;;;;7309548;19;162803;-17
2022/07/21 09:24:34;;;;;;;16.60;8.30;;;;;;;;;;7308149;19;154649;-17
2022/07/21 09:27:14;;;;;;;12.07;7.45;;;;;;;;;;7309715;19;154449;-25
2022/07/21 09:29:48;;;;;;;12.88;8.35;;;;;;;;;;7306909;19;162183;-18
2022/07/21 09:32:26;;;;;;;17.83;9.65;;;;;;;;;;7309522;19;162683;-17
2022/07/21 09:35:03;;;;;;;14.98;8.35;;;;;;;;;;7309025;19;154520;-17
2022/07/21 09:37:37;;;;;;;15.88;8.13;;;;;;;;;;7311737;19;154219;-17
2022/07/21 09:40:13;;;;;;;13.77;7.32;;;;;;;;;;7315945;19;162426;-16
2022/07/21 09:42:46;;;;;;;15.65;7.65;;;;;;;;;;7316129;19;162827;-17
2022/07/21 09:45:18;;;;;;;;;;;;;;;;;;7315374;19;154681;-17
2022/07/21 09:47:52;;;;;;;8.82;7.15;;;;;;;;;;7316221;19;153757;-17
2022/07/21 09:50:24;;;;;;;16.98;7.80;;;;;;;;;;7315746;19;162838;-17
2022/07/21 09:52:59;;;;;;;18.08;7.05;;;;;;;;;;7315351;19;162813;-17
2022/07/21 09:55:31;;;;;;;15.48;7.05;;;;;;;;;;7316103;19;155044;-17
2022/07/21 09:58:04;;;;;;;20.90;8.60;;;;;;;;;;7313574;19;153986;-17
2022/07/21 10:00:38;;;;;;;11.93;7.10;;;;;;;;;;7315288;19;162246;-17
2022/07/21 10:03:12;;;;;;;10.55;6.97;;;;;;;;;;7314836;19;163241;-17
2022/07/21 10:05:43;;;;;;;9.65;6.85;;;;;;;;;;7314446;19;154038;-17
2022/07/21 10:08:16;;;;;;;10.43;6.90;;;;;;;;;;7315383;19;154527;-17
2022/07/21 10:10:47;;;;;;;9.77;6.00;;;;;;;;;;7315148;19;162218;-17
2022/07/21 10:13:40;;;;;;;13.30;7.20;;;;;;;;;;7314624;19;162831;-17
2022/07/21 10:16:13;;;;;;;13.82;7.10;;;;;;;;;;7315408;19;154791;-17
2022/07/21 10:18:58;;;;;;;9.60;5.95;;;;;;;;;;7313568;19;154711;-17
2022/07/21 10:21:37;;;;;;;12.93;6.45;;;;;;;;;;7314578;19;162260;-17
2022/07/21 10:24:12;;;;;;;8.98;5.78;;;;;;;;;;7314837;19;164477;-16
2022/07/21 10:27:06;;;;;;;10.55;6.88;;;;;;;;;;7313714;19;154462;-17
2022/07/21 10:29:58;;;;;;;10.13;6.10;;;;;;;;;;7311131;19;154248;-17
2022/07/21 10:32:35;;;;;;;14.95;6.13;;;;;;;;;;7314511;19;162309;-17
2022/07/21 10:35:31;;;;;;;13.15;6.50;;;;;;;;;;7314083;19;162860;-17
2022/07/21 10:38:05;;;;;;;10.32;6.75;;;;;;;;;;7313531;19;154914;-17
2022/07/21 10:40:38;;;;;;;10.35;6.47;;;;;;;;;;7314419;19;153951;-17
2022/07/21 10:43:40;;;;;;;11.82;6.25;;;;;;;;;;7314052;19;162192;-17
2022/07/21 10:46:40;;;;;;;8.10;6.40;;;;;;;;;;7314330;19;163232;-16
2022/07/21 10:49:12;;;;;;;9.55;6.20;;;;;;;;;;7314485;19;154930;-16
2022/07/21 10:51:45;;;;;;;9.35;5.63;;;;;;;;;;7314189;19;153936;-17
2022/07/21 10:54:25;;;;;;;12.23;6.30;;;;;;;;;;7313880;19;162190;-16
2022/07/21 10:57:27;;;;;;;10.20;5.95;;;;;;;;;;7315702;19;162856;-17
2022/07/21 11:00:21;;;;;;;11.10;5.78;;;;;;;;;;7311287;19;154473;-15
2022/07/21 11:02:55;;;;;;;9.65;5.85;;;;;;;;;;7313816;19;154047;-15
2022/07/21 11:05:28;;;;;;;11.57;6.70;;;;;;;;;;7313459;19;162210;-16
2022/07/21 11:08:21;;;;;;;8.27;5.88;;;;;;;;;;7313209;19;163215;-16
2022/07/21 11:10:54;;;;;;;15.40;7.10;;;;;;;;;;7313928;19;155053;-15
2022/07/21 11:13:27;;;;;;;11.60;6.22;;;;;;;;;;7313564;19;154647;-15
2022/07/21 11:16:00;;;;;;;13.13;6.10;;;;;;;;;;7312873;19;162236;-16
2022/07/21 11:18:33;;;;;;;7.85;6.18;;;;;;;;;;7312091;19;163285;-18
2022/07/21 11:21:15;;;;;;;8.15;6.03;;;;;;;;;;7313121;19;154773;-15
2022/07/21 11:23:51;;;;;;;11.43;6.93;;;;;;;;;;7313471;19;153993;-17
2022/07/21 11:26:28;;;;;;;8.65;5.75;;;;;;;;;;7312934;19;162072;-16
2022/07/21 11:29:07;;;;;;;14.23;6.68;;;;;;;;;;7311282;19;163332;-16
2022/07/21 11:31:49;;;;;;;12.77;6.65;;;;;;;;;;7313438;19;154473;-16
2022/07/21 11:34:20;;;;;;;10.55;6.32;;;;;;;;;;7312861;19;154324;-16
2022/07/21 11:37:01;;;;;;;12.40;6.18;;;;;;;;;;7312555;19;162526;-15
2022/07/21 11:39:55;;;;;;;8.38;5.78;;;;;;;;;;7308848;19;163573;-16
2022/07/21 11:42:27;;;;;;;8.85;6.10;;;;;;;;;;7311493;19;154548;-15
2022/07/21 11:44:59;;;;;;;;;;;;;;;;;;7313394;19;154050;-16
2022/07/21 11:47:30;;;;;;;13.60;6.43;;;;;;;;;;7312178;19;162460;-16
2022/07/21 11:50:05;;;;;;;16.02;6.40;;;;;;;;;;7311977;19;162802;-16
2022/07/21 11:52:39;;;;;;;9.23;5.45;;;;;;;;;;7312412;19;154464;-15
2022/07/21 11:55:16;;;;;;;12.35;6.30;;;;;;;;;;7312165;19;154633;-16
2022/07/21 11:57:49;;;;;;;10.35;6.70;;;;;;;;;;7311923;19;162283;-15
2022/07/21 12:00:27;;;;;;;10.85;6.00;;;;;;;;;;7306431;19;162849;-16
2022/07/21 12:03:07;;;;;;;9.88;5.82;;;;;;;;;;7312225;19;154054;-16
2022/07/21 12:05:39;;;;;;;7.90;6.05;;;;;;;;;;7312231;19;154057;-16
2022/07/21 12:08:11;;;;;;;14.73;6.20;;;;;;;;;;7311933;19;162658;-16
2022/07/21 12:10:45;;;;;;;10.73;6.65;;;;;;;;;;7311693;19;163347;-16
2022/07/21 12:13:17;;;;;;;11.43;6.28;;;;;;;;;;7311896;19;154468;-16
2022/07/21 12:15:50;;;;;;;15.07;6.03;;;;;;;;;;7310015;19;154009;-16
2022/07/21 12:18:24;;;;;;;9.07;5.68;;;;;;;;;;7311218;19;162599;-18
2022/07/21 12:21:05;;;;;;;8.63;6.05;;;;;;;;;;7308537;19;162891;-16
2022/07/21 12:23:39;;;;;;;11.65;6.15;;;;;;;;;;7311689;19;154491;-17
2022/07/21 12:26:23;;;;;;;10.10;5.97;;;;;;;;;;7309904;19;154471;-16
2022/07/21 12:28:56;;;;;;;13.48;6.20;;;;;;;;;;7309574;19;162238;-15
2022/07/21 12:31:29;;;;;;;14.27;6.45;;;;;;;;;;7311108;19;162758;-16
2022/07/21 12:34:12;;;;;;;12.23;6.43;;;;;;;;;;7310913;19;154832;-15
2022/07/21 12:36:58;;;;;;;17.95;6.68;;;;;;;;;;7311060;19;154062;-16
2022/07/21 12:42:32;;;;;;;11.52;5.75;;;;;;;;;;7310709;19;163202;-16
2022/07/21 12:45:16;;;;;;;10.85;6.20;;;;;;;;;;7311637;19;154691;-16
2022/07/21 12:48:12;;;;;;;13.35;6.57;;;;;;;;;;7310412;19;154335;-16
2022/07/21 12:50:44;;;;;;;9.00;5.72;;;;;;;;;;7309296;19;161787;-16
2022/07/21 12:53:17;;;;;;;12.98;6.45;;;;;;;;;;7310317;19;162815;-16
2022/07/21 12:55:48;;;;;;;9.75;5.97;;;;;;;;;;7310484;19;154449;-16
2022/07/21 12:58:22;;;;;;;13.60;6.85;;;;;;;;;;7310465;19;154105;-15
2022/07/21 13:00:57;;;;;;;14.63;5.80;;;;;;;;;;7307846;19;162350;-16
2022/07/21 13:03:31;;;;;;;7.32;5.90;;;;;;;;;;7310156;19;163035;-16
2022/07/21 13:06:05;;;;;;;9.68;6.20;;;;;;;;;;7310102;19;154087;-15
2022/07/21 13:08:37;;;;;;;12.23;5.68;;;;;;;;;;7310083;19;154368;-16
2022/07/21 13:11:09;;;;;;;10.13;5.55;;;;;;;;;;7309012;19;162705;-16
2022/07/21 13:13:45;;;;;;;15.50;5.57;;;;;;;;;;7317060;19;162789;-15
2022/07/21 13:16:17;;;;;;;10.77;5.47;;;;;;;;;;7316889;19;154779;-16
2022/07/21 13:18:48;;;;;;;11.25;5.60;;;;;;;;;;7316737;19;154382;-16
2022/07/21 13:21:20;;;;;;;9.80;5.97;;;;;;;;;;7314521;19;162819;-16
2022/07/21 13:23:51;;;;;;;11.15;5.97;;;;;;;;;;7314657;19;162809;-16
2022/07/21 13:26:22;;;;;;;9.20;4.80;;;;;;;;;;7317132;19;154839;-16
2022/07/21 13:28:56;;;;;;;11.38;5.45;;;;;;;;;;7315545;19;154117;-16
2022/07/21 13:31:27;;;;;;;12.18;4.70;;;;;;;;;;7316229;19;162103;-16
2022/07/21 13:33:59;;;;;;;13.80;4.13;;;;;;;;;;7316236;19;162941;-16
2022/07/21 13:36:30;;;;;;;13.90;5.18;;;;;;;;;;7317989;19;154696;-16
2022/07/21 13:39:03;;;;;;;9.18;4.57;;;;;;;;;;7316408;19;154341;-16
2022/07/21 13:41:47;;;;;;;12.80;4.95;;;;;;;;;;7313260;19;162810;-16
2022/07/21 13:44:41;;;;;;;11.23;4.40;;;;;;;;;;7315076;19;164951;-16
2022/07/21 13:47:12;;;;;;;11.95;4.68;;;;;;;;;;7316280;19;154077;-16
2022/07/21 13:49:43;;;;;;;13.15;5.30;;;;;;;;;;7314815;19;154226;-16
2022/07/21 13:52:15;;;;;;;12.02;4.85;;;;;;;;;;7314186;19;162327;-16
2022/07/21 13:54:46;;;;;;;6.85;3.92;;;;;;;;;;7315759;19;162807;-16
2022/07/21 13:57:17;;;;;;;9.43;4.65;;;;;;;;;;7316217;19;154974;-16
2022/07/21 13:59:53;;;;;;;10.50;4.32;;;;;;;;;;7314130;19;153987;-16
2022/07/21 14:02:24;;;;;;;12.40;4.40;;;;;;;;;;7315086;19;162619;-16
2022/07/21 14:04:55;;;;;;;10.82;4.32;;;;;;;;;;7313966;19;163579;-16
2022/07/21 14:07:26;;;;;;;9.95;4.65;;;;;;;;;;7315870;19;154480;-16
2022/07/21 14:09:58;;;;;;;8.98;4.85;;;;;;;;;;7315756;19;153971;-15
2022/07/21 14:12:29;;;;;;;9.60;4.50;;;;;;;;;;7315021;19;162867;-16
2022/07/21 14:15:03;;;;;;;7.05;3.45;;;;;;;;;;7315140;19;162882;-16
2022/07/21 14:17:35;;;;;;;10.52;4.57;;;;;;;;;;7315927;19;154814;-17
2022/07/21 14:20:07;;;;;;;9.05;4.57;;;;;;;;;;7314730;19;154034;-16
2022/07/21 14:22:40;;;;;;;8.00;3.95;;;;;;;;;;7312685;19;162411;-16
2022/07/21 14:25:22;;;;;;;9.23;4.35;;;;;;;;;;7314466;19;163407;-16
2022/07/21 14:27:55;;;;;;;9.43;4.50;;;;;;;;;;7314789;19;153995;-16
2022/07/21 14:30:30;;;;;;;9.27;3.65;;;;;;;;;;7315509;19;154133;-16
2022/07/21 14:33:02;;;;;;;8.18;4.63;;;;;;;;;;7313523;19;162909;-17
2022/07/21 14:35:33;;;;;;;13.43;4.75;;;;;;;;;;7314618;19;163486;-17
2022/07/21 14:38:14;;;;;;;14.32;4.53;;;;;;;;;;7314987;19;154844;-16
2022/07/21 14:40:45;;;;;;;10.18;4.80;;;;;;;;;;7313896;19;153959;-16
2022/07/21 14:43:18;;;;;;;7.75;3.78;;;;;;;;;;7313230;19;162382;-16
2022/07/21 14:45:52;;;;;;;10.25;4.38;;;;;;;;;;7314852;19;163306;-16
2022/07/21 14:48:27;;;;;;;11.52;4.95;;;;;;;;;;7315258;19;154897;-16
2022/07/21 14:50:58;;;;;;;12.15;4.47;;;;;;;;;;7310991;19;154028;-16
2022/07/21 14:53:29;;;;;;;10.75;5.32;;;;;;;;;;7314092;19;162957;-16
2022/07/21 14:56:00;;;;;;;13.82;5.18;;;;;;;;;;7314830;19;162271;-15
2022/07/21 14:58:33;;;;;;;10.98;4.47;;;;;;;;;;7314986;19;154721;-15
2022/07/21 15:01:06;;;;;;;12.02;5.00;;;;;;;;;;7313813;19;153967;-16
2022/07/21 15:03:40;;;;;;;10.73;5.00;;;;;;;;;;7313156;19;161799;-16
2022/07/21 15:06:12;;;;;;;11.65;4.90;;;;;;;;;;7314152;19;162930;-15
2022/07/21 15:08:43;;;;;;;14.17;5.90;;;;;;;;;;7314303;19;153896;-16
2022/07/21 15:11:16;;;;;;;11.70;5.03;;;;;;;;;;7314336;19;154083;-19